sensor_id;sensor_type;location;lat;lon;timestamp;P1;durP1;ratioP1;P2;durP2;ratioP2
6288;SDS011;3177;49.880;8.836;2023-02-11T00:01:06;44.37;;;22.97;;
6288;SDS011;3177;49.880;8.836;2023-02-11T00:03:34;43.80;;;25.03;;
6288;SDS011;3177;49.880;8.836;2023-02-11T00:06:02;44.53;;;23.93;;
6288;SDS011;3177;49.880;8.836;2023-02-11T00:08:29;49.03;;;25.27;;
6288;SDS011;3177;49.880;8.836;2023-02-11T00:10:56;47.47;;;26.63;;
6288;SDS011;3177;49.880;8.836;2023-02-11T00:13:24;48.20;;;25.63;;
6288;SDS011;3177;49.880;8.836;2023-02-11T00:15:51;48.73;;;26.30;;
6288;SDS011;3177;49.880;8.836;2023-02-11T00:18:20;52.80;;;25.37;;
6288;SDS011;3177;49.880;8.836;2023-02-11T00:20:47;42.00;;;22.80;;
6288;SDS011;3177;49.880;8.836;2023-02-11T00:23:14;42.30;;;24.63;;
6288;SDS011;3177;49.880;8.836;2023-02-11T00:25:41;42.83;;;22.13;;
6288;SDS011;3177;49.880;8.836;2023-02-11T00:28:09;40.90;;;22.50;;
6288;SDS011;3177;49.880;8.836;2023-02-11T00:30:36;40.67;;;23.33;;
6288;SDS011;3177;49.880;8.836;2023-02-11T00:33:03;39.03;;;22.33;;
6288;SDS011;3177;49.880;8.836;2023-02-11T00:35:32;42.60;;;23.37;;
6288;SDS011;3177;49.880;8.836;2023-02-11T00:37:59;39.67;;;23.23;;
6288;SDS011;3177;49.880;8.836;2023-02-11T00:40:26;41.60;;;23.23;;
6288;SDS011;3177;49.880;8.836;2023-02-11T00:42:53;47.13;;;24.77;;
6288;SDS011;3177;49.880;8.836;2023-02-11T00:45:20;47.10;;;25.00;;
6288;SDS011;3177;49.880;8.836;2023-02-11T00:47:47;41.53;;;22.30;;
6288;SDS011;3177;49.880;8.836;2023-02-11T00:50:14;40.87;;;23.93;;
6288;SDS011;3177;49.880;8.836;2023-02-11T00:52:42;43.47;;;25.30;;
6288;SDS011;3177;49.880;8.836;2023-02-11T00:55:09;42.53;;;23.47;;
6288;SDS011;3177;49.880;8.836;2023-02-11T00:57:36;39.63;;;23.33;;
6288;SDS011;3177;49.880;8.836;2023-02-11T01:00:04;38.77;;;23.43;;
6288;SDS011;3177;49.880;8.836;2023-02-11T01:02:31;49.60;;;24.60;;
6288;SDS011;3177;49.880;8.836;2023-02-11T01:04:58;52.37;;;25.73;;
6288;SDS011;3177;49.880;8.836;2023-02-11T01:07:26;44.67;;;24.70;;
6288;SDS011;3177;49.880;8.836;2023-02-11T01:09:54;44.13;;;24.67;;
6288;SDS011;3177;49.880;8.836;2023-02-11T01:12:21;47.03;;;25.10;;
6288;SDS011;3177;49.880;8.836;2023-02-11T01:14:48;52.60;;;24.63;;
6288;SDS011;3177;49.880;8.836;2023-02-11T01:17:15;50.53;;;26.50;;
6288;SDS011;3177;49.880;8.836;2023-02-11T01:19:42;55.10;;;27.67;;
6288;SDS011;3177;49.880;8.836;2023-02-11T01:22:09;54.70;;;27.10;;
6288;SDS011;3177;49.880;8.836;2023-02-11T01:24:36;56.47;;;29.37;;
6288;SDS011;3177;49.880;8.836;2023-02-11T01:27:05;52.83;;;28.40;;
6288;SDS011;3177;49.880;8.836;2023-02-11T01:29:32;56.47;;;29.00;;
6288;SDS011;3177;49.880;8.836;2023-02-11T01:31:59;53.93;;;27.47;;
6288;SDS011;3177;49.880;8.836;2023-02-11T01:34:26;59.53;;;27.80;;
6288;SDS011;3177;49.880;8.836;2023-02-11T01:36:55;56.60;;;26.90;;
6288;SDS011;3177;49.880;8.836;2023-02-11T01:39:22;57.97;;;27.70;;
6288;SDS011;3177;49.880;8.836;2023-02-11T01:41:49;50.33;;;26.70;;
6288;SDS011;3177;49.880;8.836;2023-02-11T01:44:25;50.53;;;26.93;;
6288;SDS011;3177;49.880;8.836;2023-02-11T01:46:53;59.33;;;28.77;;
6288;SDS011;3177;49.880;8.836;2023-02-11T01:49:20;64.13;;;31.43;;
6288;SDS011;3177;49.880;8.836;2023-02-11T01:51:50;33.80;;;19.97;;
6288;SDS011;3177;49.880;8.836;2023-02-11T01:54:21;56.60;;;29.60;;
6288;SDS011;3177;49.880;8.836;2023-02-11T01:57:07;50.33;;;25.60;;
6288;SDS011;3177;49.880;8.836;2023-02-11T02:00:00;40.60;;;21.60;;
6288;SDS011;3177;49.880;8.836;2023-02-11T02:02:29;46.33;;;26.53;;
6288;SDS011;3177;49.880;8.836;2023-02-11T02:04:59;53.77;;;28.93;;
6288;SDS011;3177;49.880;8.836;2023-02-11T02:07:30;46.27;;;26.23;;
6288;SDS011;3177;49.880;8.836;2023-02-11T02:09:59;54.23;;;26.83;;
6288;SDS011;3177;49.880;8.836;2023-02-11T02:12:28;30.97;;;15.73;;
6288;SDS011;3177;49.880;8.836;2023-02-11T02:17:41;45.90;;;25.53;;
6288;SDS011;3177;49.880;8.836;2023-02-11T02:20:16;43.70;;;22.53;;
6288;SDS011;3177;49.880;8.836;2023-02-11T02:22:51;46.13;;;23.33;;
6288;SDS011;3177;49.880;8.836;2023-02-11T02:25:28;40.43;;;22.27;;
6288;SDS011;3177;49.880;8.836;2023-02-11T02:28:03;48.57;;;25.03;;
6288;SDS011;3177;49.880;8.836;2023-02-11T02:30:45;21.70;;;11.43;;
6288;SDS011;3177;49.880;8.836;2023-02-11T02:33:19;47.20;;;23.83;;
6288;SDS011;3177;49.880;8.836;2023-02-11T02:35:51;34.73;;;19.23;;
6288;SDS011;3177;49.880;8.836;2023-02-11T02:38:20;39.83;;;24.03;;
6288;SDS011;3177;49.880;8.836;2023-02-11T02:40:50;37.73;;;21.07;;
6288;SDS011;3177;49.880;8.836;2023-02-11T02:43:19;31.10;;;17.47;;
6288;SDS011;3177;49.880;8.836;2023-02-11T02:45:47;27.40;;;15.73;;
6288;SDS011;3177;49.880;8.836;2023-02-11T02:48:28;35.27;;;20.33;;
6288;SDS011;3177;49.880;8.836;2023-02-11T02:51:00;34.23;;;20.53;;
6288;SDS011;3177;49.880;8.836;2023-02-11T02:53:35;36.83;;;19.53;;
6288;SDS011;3177;49.880;8.836;2023-02-11T02:56:05;35.43;;;21.57;;
6288;SDS011;3177;49.880;8.836;2023-02-11T02:58:49;39.63;;;21.93;;
6288;SDS011;3177;49.880;8.836;2023-02-11T03:01:22;37.83;;;20.03;;
6288;SDS011;3177;49.880;8.836;2023-02-11T03:03:55;32.60;;;17.80;;
6288;SDS011;3177;49.880;8.836;2023-02-11T03:06:27;39.07;;;21.73;;
6288;SDS011;3177;49.880;8.836;2023-02-11T03:08:56;35.23;;;18.73;;
6288;SDS011;3177;49.880;8.836;2023-02-11T03:11:25;33.07;;;19.90;;
6288;SDS011;3177;49.880;8.836;2023-02-11T03:13:53;39.97;;;20.63;;
6288;SDS011;3177;49.880;8.836;2023-02-11T03:16:23;34.40;;;19.77;;
6288;SDS011;3177;49.880;8.836;2023-02-11T03:18:51;36.93;;;20.13;;
6288;SDS011;3177;49.880;8.836;2023-02-11T03:21:22;30.30;;;18.57;;
6288;SDS011;3177;49.880;8.836;2023-02-11T03:23:51;34.00;;;20.33;;
6288;SDS011;3177;49.880;8.836;2023-02-11T03:26:23;37.20;;;20.87;;
6288;SDS011;3177;49.880;8.836;2023-02-11T03:28:53;34.87;;;20.50;;
6288;SDS011;3177;49.880;8.836;2023-02-11T03:31:24;31.13;;;17.83;;
6288;SDS011;3177;49.880;8.836;2023-02-11T03:33:54;28.83;;;17.03;;
6288;SDS011;3177;49.880;8.836;2023-02-11T03:36:25;31.23;;;19.50;;
6288;SDS011;3177;49.880;8.836;2023-02-11T03:38:54;29.27;;;18.67;;
6288;SDS011;3177;49.880;8.836;2023-02-11T03:41:22;32.60;;;19.23;;
6288;SDS011;3177;49.880;8.836;2023-02-11T03:43:51;29.73;;;18.57;;
6288;SDS011;3177;49.880;8.836;2023-02-11T03:46:20;27.33;;;17.10;;
6288;SDS011;3177;49.880;8.836;2023-02-11T03:48:48;28.60;;;15.87;;
6288;SDS011;3177;49.880;8.836;2023-02-11T03:51:17;27.07;;;17.20;;
6288;SDS011;3177;49.880;8.836;2023-02-11T03:53:47;29.47;;;17.30;;
6288;SDS011;3177;49.880;8.836;2023-02-11T03:56:18;28.60;;;16.13;;
6288;SDS011;3177;49.880;8.836;2023-02-11T03:58:46;26.20;;;16.20;;
6288;SDS011;3177;49.880;8.836;2023-02-11T04:01:14;28.47;;;16.87;;
6288;SDS011;3177;49.880;8.836;2023-02-11T04:03:41;29.53;;;16.93;;
6288;SDS011;3177;49.880;8.836;2023-02-11T04:06:08;32.20;;;18.27;;
6288;SDS011;3177;49.880;8.836;2023-02-11T04:08:35;34.03;;;17.87;;
6288;SDS011;3177;49.880;8.836;2023-02-11T04:11:03;26.17;;;16.93;;
6288;SDS011;3177;49.880;8.836;2023-02-11T04:13:31;31.40;;;17.93;;
6288;SDS011;3177;49.880;8.836;2023-02-11T04:15:58;29.07;;;17.40;;
6288;SDS011;3177;49.880;8.836;2023-02-11T04:18:25;27.37;;;15.73;;
6288;SDS011;3177;49.880;8.836;2023-02-11T04:20:52;25.77;;;17.60;;
6288;SDS011;3177;49.880;8.836;2023-02-11T04:23:19;23.47;;;15.30;;
6288;SDS011;3177;49.880;8.836;2023-02-11T04:25:49;30.53;;;18.70;;
6288;SDS011;3177;49.880;8.836;2023-02-11T04:28:18;35.07;;;16.87;;
6288;SDS011;3177;49.880;8.836;2023-02-11T04:30:45;31.33;;;19.20;;
6288;SDS011;3177;49.880;8.836;2023-02-11T04:33:12;27.77;;;17.73;;
6288;SDS011;3177;49.880;8.836;2023-02-11T04:35:39;29.77;;;17.87;;
6288;SDS011;3177;49.880;8.836;2023-02-11T04:38:06;28.93;;;18.50;;
6288;SDS011;3177;49.880;8.836;2023-02-11T04:40:33;26.50;;;17.10;;
6288;SDS011;3177;49.880;8.836;2023-02-11T04:43:00;26.63;;;15.60;;
6288;SDS011;3177;49.880;8.836;2023-02-11T04:45:28;29.57;;;17.83;;
6288;SDS011;3177;49.880;8.836;2023-02-11T04:47:56;30.63;;;18.03;;
6288;SDS011;3177;49.880;8.836;2023-02-11T04:50:23;30.30;;;18.37;;
6288;SDS011;3177;49.880;8.836;2023-02-11T04:52:50;30.50;;;17.50;;
6288;SDS011;3177;49.880;8.836;2023-02-11T04:57:50;30.53;;;18.53;;
6288;SDS011;3177;49.880;8.836;2023-02-11T05:00:17;32.80;;;18.50;;
6288;SDS011;3177;49.880;8.836;2023-02-11T05:02:46;30.10;;;17.23;;
6288;SDS011;3177;49.880;8.836;2023-02-11T05:05:13;29.73;;;18.17;;
6288;SDS011;3177;49.880;8.836;2023-02-11T05:07:40;30.17;;;17.50;;
6288;SDS011;3177;49.880;8.836;2023-02-11T05:10:07;31.77;;;19.00;;
6288;SDS011;3177;49.880;8.836;2023-02-11T05:12:34;34.17;;;18.30;;
6288;SDS011;3177;49.880;8.836;2023-02-11T05:15:01;24.03;;;15.23;;
6288;SDS011;3177;49.880;8.836;2023-02-11T05:17:28;35.30;;;18.80;;
6288;SDS011;3177;49.880;8.836;2023-02-11T05:19:57;31.97;;;19.20;;
6288;SDS011;3177;49.880;8.836;2023-02-11T05:22:24;36.10;;;20.00;;
6288;SDS011;3177;49.880;8.836;2023-02-11T05:24:51;31.97;;;19.47;;
6288;SDS011;3177;49.880;8.836;2023-02-11T05:27:18;33.90;;;18.23;;
6288;SDS011;3177;49.880;8.836;2023-02-11T05:29:45;33.50;;;18.90;;
6288;SDS011;3177;49.880;8.836;2023-02-11T05:32:12;30.10;;;18.77;;
6288;SDS011;3177;49.880;8.836;2023-02-11T05:34:39;32.27;;;18.77;;
6288;SDS011;3177;49.880;8.836;2023-02-11T05:37:07;35.53;;;19.40;;
6288;SDS011;3177;49.880;8.836;2023-02-11T05:39:34;30.47;;;17.87;;
6288;SDS011;3177;49.880;8.836;2023-02-11T05:42:02;31.83;;;19.63;;
6288;SDS011;3177;49.880;8.836;2023-02-11T05:44:29;34.50;;;18.63;;
6288;SDS011;3177;49.880;8.836;2023-02-11T05:46:56;31.80;;;17.67;;
6288;SDS011;3177;49.880;8.836;2023-02-11T05:49:23;31.77;;;19.60;;
6288;SDS011;3177;49.880;8.836;2023-02-11T05:51:50;36.97;;;20.63;;
6288;SDS011;3177;49.880;8.836;2023-02-11T05:54:18;29.40;;;17.53;;
6288;SDS011;3177;49.880;8.836;2023-02-11T05:56:45;30.43;;;17.80;;
6288;SDS011;3177;49.880;8.836;2023-02-11T05:59:13;33.23;;;20.03;;
6288;SDS011;3177;49.880;8.836;2023-02-11T06:01:40;27.97;;;14.87;;
6288;SDS011;3177;49.880;8.836;2023-02-11T06:04:07;42.73;;;19.03;;
6288;SDS011;3177;49.880;8.836;2023-02-11T06:06:34;28.53;;;18.67;;
6288;SDS011;3177;49.880;8.836;2023-02-11T06:09:01;18.70;;;13.37;;
6288;SDS011;3177;49.880;8.836;2023-02-11T06:11:30;31.40;;;15.87;;
6288;SDS011;3177;49.880;8.836;2023-02-11T06:13:57;19.80;;;12.43;;
6288;SDS011;3177;49.880;8.836;2023-02-11T06:16:24;29.07;;;17.47;;
6288;SDS011;3177;49.880;8.836;2023-02-11T06:18:51;31.37;;;18.13;;
6288;SDS011;3177;49.880;8.836;2023-02-11T06:21:18;30.63;;;17.77;;
6288;SDS011;3177;49.880;8.836;2023-02-11T06:23:45;29.87;;;16.97;;
6288;SDS011;3177;49.880;8.836;2023-02-11T06:26:15;30.43;;;18.83;;
6288;SDS011;3177;49.880;8.836;2023-02-11T06:28:44;32.80;;;17.63;;
6288;SDS011;3177;49.880;8.836;2023-02-11T06:31:11;33.70;;;18.13;;
6288;SDS011;3177;49.880;8.836;2023-02-11T06:33:38;28.00;;;16.77;;
6288;SDS011;3177;49.880;8.836;2023-02-11T06:36:10;9.23;;;6.33;;
6288;SDS011;3177;49.880;8.836;2023-02-11T06:38:37;31.37;;;18.27;;
6288;SDS011;3177;49.880;8.836;2023-02-11T06:41:04;26.53;;;17.53;;
6288;SDS011;3177;49.880;8.836;2023-02-11T06:43:31;23.07;;;13.33;;
6288;SDS011;3177;49.880;8.836;2023-02-11T06:45:59;32.70;;;19.07;;
6288;SDS011;3177;49.880;8.836;2023-02-11T06:48:27;34.70;;;18.57;;
6288;SDS011;3177;49.880;8.836;2023-02-11T06:50:54;35.10;;;19.40;;
6288;SDS011;3177;49.880;8.836;2023-02-11T06:53:21;26.50;;;15.53;;
6288;SDS011;3177;49.880;8.836;2023-02-11T06:55:49;34.80;;;18.17;;
6288;SDS011;3177;49.880;8.836;2023-02-11T06:58:16;29.97;;;16.80;;
6288;SDS011;3177;49.880;8.836;2023-02-11T07:00:43;30.60;;;18.30;;
6288;SDS011;3177;49.880;8.836;2023-02-11T07:03:11;28.10;;;17.53;;
6288;SDS011;3177;49.880;8.836;2023-02-11T07:05:40;28.70;;;17.87;;
6288;SDS011;3177;49.880;8.836;2023-02-11T07:08:09;28.80;;;17.33;;
6288;SDS011;3177;49.880;8.836;2023-02-11T07:10:36;29.80;;;16.37;;
6288;SDS011;3177;49.880;8.836;2023-02-11T07:13:03;28.03;;;17.90;;
6288;SDS011;3177;49.880;8.836;2023-02-11T07:15:30;28.57;;;15.97;;
6288;SDS011;3177;49.880;8.836;2023-02-11T07:17:58;26.20;;;15.63;;
6288;SDS011;3177;49.880;8.836;2023-02-11T07:20:26;28.70;;;17.27;;
6288;SDS011;3177;49.880;8.836;2023-02-11T07:22:53;25.73;;;15.07;;
6288;SDS011;3177;49.880;8.836;2023-02-11T07:25:20;31.63;;;17.73;;
6288;SDS011;3177;49.880;8.836;2023-02-11T07:27:47;24.13;;;15.67;;
6288;SDS011;3177;49.880;8.836;2023-02-11T07:30:16;26.40;;;15.07;;
6288;SDS011;3177;49.880;8.836;2023-02-11T07:32:43;26.77;;;17.40;;
6288;SDS011;3177;49.880;8.836;2023-02-11T07:35:10;23.70;;;12.10;;
6288;SDS011;3177;49.880;8.836;2023-02-11T07:37:38;13.97;;;9.10;;
6288;SDS011;3177;49.880;8.836;2023-02-11T07:40:07;23.23;;;14.33;;
6288;SDS011;3177;49.880;8.836;2023-02-11T07:42:34;28.60;;;17.17;;
6288;SDS011;3177;49.880;8.836;2023-02-11T07:45:02;32.83;;;19.90;;
6288;SDS011;3177;49.880;8.836;2023-02-11T07:47:29;25.43;;;15.90;;
6288;SDS011;3177;49.880;8.836;2023-02-11T07:49:56;28.37;;;15.50;;
6288;SDS011;3177;49.880;8.836;2023-02-11T07:52:26;26.20;;;16.17;;
6288;SDS011;3177;49.880;8.836;2023-02-11T07:54:56;26.27;;;17.20;;
6288;SDS011;3177;49.880;8.836;2023-02-11T07:57:23;24.13;;;16.10;;
6288;SDS011;3177;49.880;8.836;2023-02-11T07:59:50;25.27;;;15.40;;
6288;SDS011;3177;49.880;8.836;2023-02-11T08:02:18;22.30;;;14.10;;
6288;SDS011;3177;49.880;8.836;2023-02-11T08:04:45;29.97;;;14.30;;
6288;SDS011;3177;49.880;8.836;2023-02-11T08:07:13;9.87;;;5.47;;
6288;SDS011;3177;49.880;8.836;2023-02-11T08:09:47;26.50;;;15.43;;
6288;SDS011;3177;49.880;8.836;2023-02-11T08:12:16;25.17;;;14.57;;
6288;SDS011;3177;49.880;8.836;2023-02-11T08:14:43;20.53;;;14.03;;
6288;SDS011;3177;49.880;8.836;2023-02-11T08:17:10;28.87;;;17.90;;
6288;SDS011;3177;49.880;8.836;2023-02-11T08:19:37;24.80;;;15.60;;
6288;SDS011;3177;49.880;8.836;2023-02-11T08:22:04;21.27;;;12.97;;
6288;SDS011;3177;49.880;8.836;2023-02-11T08:24:31;26.27;;;16.57;;
6288;SDS011;3177;49.880;8.836;2023-02-11T08:26:59;24.60;;;16.63;;
6288;SDS011;3177;49.880;8.836;2023-02-11T08:29:27;28.17;;;16.90;;
6288;SDS011;3177;49.880;8.836;2023-02-11T08:31:54;25.37;;;16.23;;
6288;SDS011;3177;49.880;8.836;2023-02-11T08:34:21;20.63;;;12.60;;
6288;SDS011;3177;49.880;8.836;2023-02-11T08:36:49;21.23;;;14.93;;
6288;SDS011;3177;49.880;8.836;2023-02-11T08:39:16;25.10;;;13.47;;
6288;SDS011;3177;49.880;8.836;2023-02-11T08:41:44;30.77;;;16.67;;
6288;SDS011;3177;49.880;8.836;2023-02-11T08:44:12;26.50;;;17.50;;
6288;SDS011;3177;49.880;8.836;2023-02-11T08:46:51;26.23;;;15.80;;
6288;SDS011;3177;49.880;8.836;2023-02-11T08:49:19;29.27;;;15.17;;
6288;SDS011;3177;49.880;8.836;2023-02-11T08:51:46;28.60;;;17.80;;
6288;SDS011;3177;49.880;8.836;2023-02-11T08:54:13;25.37;;;14.60;;
6288;SDS011;3177;49.880;8.836;2023-02-11T08:56:41;30.80;;;18.37;;
6288;SDS011;3177;49.880;8.836;2023-02-11T08:59:09;30.83;;;17.17;;
6288;SDS011;3177;49.880;8.836;2023-02-11T09:01:37;33.47;;;18.10;;
6288;SDS011;3177;49.880;8.836;2023-02-11T09:04:08;32.03;;;18.17;;
6288;SDS011;3177;49.880;8.836;2023-02-11T09:06:35;37.13;;;19.93;;
6288;SDS011;3177;49.880;8.836;2023-02-11T09:09:03;31.73;;;19.27;;
6288;SDS011;3177;49.880;8.836;2023-02-11T09:11:31;31.30;;;19.30;;
6288;SDS011;3177;49.880;8.836;2023-02-11T09:13:59;33.53;;;18.90;;
6288;SDS011;3177;49.880;8.836;2023-02-11T09:16:27;32.47;;;19.47;;
6288;SDS011;3177;49.880;8.836;2023-02-11T09:18:55;29.17;;;19.10;;
6288;SDS011;3177;49.880;8.836;2023-02-11T09:21:24;29.43;;;18.47;;
6288;SDS011;3177;49.880;8.836;2023-02-11T09:23:51;28.20;;;17.43;;
6288;SDS011;3177;49.880;8.836;2023-02-11T09:26:19;31.33;;;19.00;;
6288;SDS011;3177;49.880;8.836;2023-02-11T09:28:47;30.90;;;19.50;;
6288;SDS011;3177;49.880;8.836;2023-02-11T09:31:15;27.80;;;18.20;;
6288;SDS011;3177;49.880;8.836;2023-02-11T09:33:43;31.07;;;19.50;;
6288;SDS011;3177;49.880;8.836;2023-02-11T09:36:13;33.80;;;18.43;;
6288;SDS011;3177;49.880;8.836;2023-02-11T09:38:42;23.53;;;14.13;;
6288;SDS011;3177;49.880;8.836;2023-02-11T09:41:16;30.73;;;19.43;;
6288;SDS011;3177;49.880;8.836;2023-02-11T09:43:47;35.43;;;17.23;;
6288;SDS011;3177;49.880;8.836;2023-02-11T09:46:15;35.47;;;19.50;;
6288;SDS011;3177;49.880;8.836;2023-02-11T09:48:44;28.57;;;19.43;;
6288;SDS011;3177;49.880;8.836;2023-02-11T09:51:14;30.40;;;19.00;;
6288;SDS011;3177;49.880;8.836;2023-02-11T09:53:44;28.97;;;17.90;;
6288;SDS011;3177;49.880;8.836;2023-02-11T09:56:12;29.10;;;18.67;;
6288;SDS011;3177;49.880;8.836;2023-02-11T09:58:40;29.40;;;17.47;;
6288;SDS011;3177;49.880;8.836;2023-02-11T10:01:11;28.53;;;19.47;;
6288;SDS011;3177;49.880;8.836;2023-02-11T10:03:48;32.73;;;19.77;;
6288;SDS011;3177;49.880;8.836;2023-02-11T10:06:25;29.07;;;18.50;;
6288;SDS011;3177;49.880;8.836;2023-02-11T10:11:51;29.43;;;18.60;;
6288;SDS011;3177;49.880;8.836;2023-02-11T10:14:24;36.40;;;19.67;;
6288;SDS011;3177;49.880;8.836;2023-02-11T10:16:57;32.40;;;21.00;;
6288;SDS011;3177;49.880;8.836;2023-02-11T10:19:32;29.23;;;17.13;;
6288;SDS011;3177;49.880;8.836;2023-02-11T10:22:03;30.63;;;19.83;;
6288;SDS011;3177;49.880;8.836;2023-02-11T10:24:32;27.10;;;18.30;;
6288;SDS011;3177;49.880;8.836;2023-02-11T10:27:03;28.20;;;19.27;;
6288;SDS011;3177;49.880;8.836;2023-02-11T10:29:34;28.13;;;18.73;;
6288;SDS011;3177;49.880;8.836;2023-02-11T10:32:03;32.70;;;20.33;;
6288;SDS011;3177;49.880;8.836;2023-02-11T10:34:31;26.43;;;17.93;;
6288;SDS011;3177;49.880;8.836;2023-02-11T10:36:59;29.53;;;18.10;;
6288;SDS011;3177;49.880;8.836;2023-02-11T10:39:27;27.70;;;17.73;;
6288;SDS011;3177;49.880;8.836;2023-02-11T10:41:56;31.57;;;19.20;;
6288;SDS011;3177;49.880;8.836;2023-02-11T10:44:26;35.03;;;19.73;;
6288;SDS011;3177;49.880;8.836;2023-02-11T10:46:58;31.13;;;17.87;;
6288;SDS011;3177;49.880;8.836;2023-02-11T10:49:32;29.13;;;17.47;;
6288;SDS011;3177;49.880;8.836;2023-02-11T10:52:11;32.90;;;19.10;;
6288;SDS011;3177;49.880;8.836;2023-02-11T10:54:38;27.83;;;17.77;;
6288;SDS011;3177;49.880;8.836;2023-02-11T10:57:16;29.40;;;19.50;;
6288;SDS011;3177;49.880;8.836;2023-02-11T10:59:46;27.20;;;15.67;;
6288;SDS011;3177;49.880;8.836;2023-02-11T11:02:23;31.10;;;19.77;;
6288;SDS011;3177;49.880;8.836;2023-02-11T11:05:20;26.53;;;17.90;;
6288;SDS011;3177;49.880;8.836;2023-02-11T11:07:53;26.43;;;16.60;;
6288;SDS011;3177;49.880;8.836;2023-02-11T11:10:28;23.73;;;17.07;;
6288;SDS011;3177;49.880;8.836;2023-02-11T11:12:57;32.27;;;17.23;;
6288;SDS011;3177;49.880;8.836;2023-02-11T11:15:26;29.23;;;17.83;;
6288;SDS011;3177;49.880;8.836;2023-02-11T11:18:08;27.03;;;17.03;;
6288;SDS011;3177;49.880;8.836;2023-02-11T11:20:35;27.77;;;16.73;;
6288;SDS011;3177;49.880;8.836;2023-02-11T11:23:10;27.37;;;17.20;;
6288;SDS011;3177;49.880;8.836;2023-02-11T11:28:31;28.13;;;17.43;;
6288;SDS011;3177;49.880;8.836;2023-02-11T11:33:49;25.77;;;17.23;;
6288;SDS011;3177;49.880;8.836;2023-02-11T11:36:24;29.20;;;17.47;;
6288;SDS011;3177;49.880;8.836;2023-02-11T11:38:59;24.10;;;16.27;;
6288;SDS011;3177;49.880;8.836;2023-02-11T11:41:30;27.40;;;17.13;;
6288;SDS011;3177;49.880;8.836;2023-02-11T11:44:00;26.37;;;16.67;;
6288;SDS011;3177;49.880;8.836;2023-02-11T11:46:29;25.37;;;16.97;;
6288;SDS011;3177;49.880;8.836;2023-02-11T11:49:11;23.90;;;15.73;;
6288;SDS011;3177;49.880;8.836;2023-02-11T11:51:40;26.53;;;17.43;;
6288;SDS011;3177;49.880;8.836;2023-02-11T11:54:09;25.53;;;16.93;;
6288;SDS011;3177;49.880;8.836;2023-02-11T11:56:38;26.53;;;16.57;;
6288;SDS011;3177;49.880;8.836;2023-02-11T11:59:14;22.73;;;14.13;;
6288;SDS011;3177;49.880;8.836;2023-02-11T12:01:46;24.13;;;15.97;;
6288;SDS011;3177;49.880;8.836;2023-02-11T12:04:24;28.00;;;16.67;;
6288;SDS011;3177;49.880;8.836;2023-02-11T12:06:59;23.03;;;16.07;;
6288;SDS011;3177;49.880;8.836;2023-02-11T12:09:29;24.27;;;14.60;;
6288;SDS011;3177;49.880;8.836;2023-02-11T12:12:10;25.17;;;16.13;;
6288;SDS011;3177;49.880;8.836;2023-02-11T12:14:42;24.73;;;15.53;;
6288;SDS011;3177;49.880;8.836;2023-02-11T12:17:13;23.73;;;15.33;;
6288;SDS011;3177;49.880;8.836;2023-02-11T12:22:35;27.10;;;16.13;;
6288;SDS011;3177;49.880;8.836;2023-02-11T12:25:16;31.70;;;17.67;;
6288;SDS011;3177;49.880;8.836;2023-02-11T12:27:52;28.53;;;17.30;;
6288;SDS011;3177;49.880;8.836;2023-02-11T12:30:27;24.13;;;17.33;;
6288;SDS011;3177;49.880;8.836;2023-02-11T12:33:00;25.33;;;15.37;;
6288;SDS011;3177;49.880;8.836;2023-02-11T12:35:31;29.27;;;18.20;;
6288;SDS011;3177;49.880;8.836;2023-02-11T12:38:15;24.53;;;17.00;;
6288;SDS011;3177;49.880;8.836;2023-02-11T12:40:49;26.60;;;16.07;;
6288;SDS011;3177;49.880;8.836;2023-02-11T12:43:26;28.47;;;17.20;;
6288;SDS011;3177;49.880;8.836;2023-02-11T12:46:12;23.57;;;15.93;;
6288;SDS011;3177;49.880;8.836;2023-02-11T12:51:34;27.73;;;16.23;;
6288;SDS011;3177;49.880;8.836;2023-02-11T12:54:21;26.27;;;16.80;;
6288;SDS011;3177;49.880;8.836;2023-02-11T12:56:51;24.00;;;14.53;;
6288;SDS011;3177;49.880;8.836;2023-02-11T12:59:28;26.57;;;17.80;;
6288;SDS011;3177;49.880;8.836;2023-02-11T13:01:59;25.93;;;17.97;;
6288;SDS011;3177;49.880;8.836;2023-02-11T13:04:32;25.57;;;17.63;;
6288;SDS011;3177;49.880;8.836;2023-02-11T13:07:01;31.27;;;17.60;;
6288;SDS011;3177;49.880;8.836;2023-02-11T13:12:25;27.20;;;16.73;;
6288;SDS011;3177;49.880;8.836;2023-02-11T13:15:14;21.70;;;15.63;;
6288;SDS011;3177;49.880;8.836;2023-02-11T13:17:43;26.37;;;16.23;;
6288;SDS011;3177;49.880;8.836;2023-02-11T13:20:14;24.77;;;15.97;;
6288;SDS011;3177;49.880;8.836;2023-02-11T13:22:47;23.93;;;16.87;;
6288;SDS011;3177;49.880;8.836;2023-02-11T13:25:18;25.43;;;17.23;;
6288;SDS011;3177;49.880;8.836;2023-02-11T13:27:55;23.37;;;16.40;;
6288;SDS011;3177;49.880;8.836;2023-02-11T13:30:25;23.07;;;16.13;;
6288;SDS011;3177;49.880;8.836;2023-02-11T13:33:02;25.50;;;16.87;;
6288;SDS011;3177;49.880;8.836;2023-02-11T13:35:31;20.47;;;15.23;;
6288;SDS011;3177;49.880;8.836;2023-02-11T13:37:59;22.40;;;16.13;;
6288;SDS011;3177;49.880;8.836;2023-02-11T13:40:27;24.67;;;17.23;;
6288;SDS011;3177;49.880;8.836;2023-02-11T13:42:59;27.60;;;17.23;;
6288;SDS011;3177;49.880;8.836;2023-02-11T13:45:28;24.23;;;16.40;;
6288;SDS011;3177;49.880;8.836;2023-02-11T13:47:56;24.77;;;15.67;;
6288;SDS011;3177;49.880;8.836;2023-02-11T13:50:24;22.17;;;13.73;;
6288;SDS011;3177;49.880;8.836;2023-02-11T13:52:56;22.83;;;15.63;;
6288;SDS011;3177;49.880;8.836;2023-02-11T13:55:26;21.70;;;15.33;;
6288;SDS011;3177;49.880;8.836;2023-02-11T14:00:50;20.37;;;12.90;;
6288;SDS011;3177;49.880;8.836;2023-02-11T14:03:32;21.97;;;14.90;;
6288;SDS011;3177;49.880;8.836;2023-02-11T14:06:21;21.77;;;15.27;;
6288;SDS011;3177;49.880;8.836;2023-02-11T14:14:57;21.40;;;14.80;;
6288;SDS011;3177;49.880;8.836;2023-02-11T14:17:32;24.37;;;15.80;;
6288;SDS011;3177;49.880;8.836;2023-02-11T14:20:31;24.03;;;14.07;;
6288;SDS011;3177;49.880;8.836;2023-02-11T14:22:59;21.97;;;15.27;;
6288;SDS011;3177;49.880;8.836;2023-02-11T14:25:28;23.00;;;15.17;;
6288;SDS011;3177;49.880;8.836;2023-02-11T14:27:56;24.53;;;15.67;;
6288;SDS011;3177;49.880;8.836;2023-02-11T14:30:31;23.33;;;16.07;;
6288;SDS011;3177;49.880;8.836;2023-02-11T14:36:02;27.13;;;16.07;;
6288;SDS011;3177;49.880;8.836;2023-02-11T14:38:37;25.17;;;16.90;;
6288;SDS011;3177;49.880;8.836;2023-02-11T14:41:18;21.57;;;14.90;;
6288;SDS011;3177;49.880;8.836;2023-02-11T14:43:55;21.87;;;15.83;;
6288;SDS011;3177;49.880;8.836;2023-02-11T14:46:24;26.10;;;17.17;;
6288;SDS011;3177;49.880;8.836;2023-02-11T14:49:01;26.63;;;16.37;;
6288;SDS011;3177;49.880;8.836;2023-02-11T14:51:34;25.17;;;16.50;;
6288;SDS011;3177;49.880;8.836;2023-02-11T14:54:16;24.87;;;16.30;;
6288;SDS011;3177;49.880;8.836;2023-02-11T14:56:46;21.80;;;15.13;;
6288;SDS011;3177;49.880;8.836;2023-02-11T14:59:30;21.47;;;13.43;;
6288;SDS011;3177;49.880;8.836;2023-02-11T15:02:00;22.10;;;15.90;;
6288;SDS011;3177;49.880;8.836;2023-02-11T15:04:35;21.20;;;14.63;;
6288;SDS011;3177;49.880;8.836;2023-02-11T15:07:05;24.20;;;15.10;;
6288;SDS011;3177;49.880;8.836;2023-02-11T15:09:41;25.13;;;15.30;;
6288;SDS011;3177;49.880;8.836;2023-02-11T15:12:14;18.53;;;13.77;;
6288;SDS011;3177;49.880;8.836;2023-02-11T15:14:45;24.10;;;15.37;;
6288;SDS011;3177;49.880;8.836;2023-02-11T15:17:13;23.63;;;14.63;;
6288;SDS011;3177;49.880;8.836;2023-02-11T15:22:41;21.87;;;13.20;;
6288;SDS011;3177;49.880;8.836;2023-02-11T15:25:11;23.50;;;14.30;;
6288;SDS011;3177;49.880;8.836;2023-02-11T15:27:41;21.80;;;14.40;;
6288;SDS011;3177;49.880;8.836;2023-02-11T15:30:26;22.90;;;14.00;;
6288;SDS011;3177;49.880;8.836;2023-02-11T15:32:57;23.40;;;15.03;;
6288;SDS011;3177;49.880;8.836;2023-02-11T15:35:27;21.47;;;15.20;;
6288;SDS011;3177;49.880;8.836;2023-02-11T15:37:57;24.27;;;15.77;;
6288;SDS011;3177;49.880;8.836;2023-02-11T15:40:25;26.60;;;16.10;;
6288;SDS011;3177;49.880;8.836;2023-02-11T15:42:56;25.17;;;15.53;;